Hit Tracker is now ESPN Home Run Tracker! Hit Tracker founder Greg Rybarczyk is now collaborating with the ESPN Stats & Information Group to continue tracking all MLB home runs, and helping baseball fans know "How Far It Really Went!™" Please credit any information on this site to ESPN Stats & Information Group. For more information and analysis on home runs, please contact founder Greg Rybarczyk. E-Mail ESPN Home Run Tracker
Main Page | Ballparks | Park Overlays | Glossary | Highlight Homers | Feedback | Bio | 3 Types of HR's | AAA Home Run Derby Last Updated: June 28, 2017, 10:40 pm PST
If you want to know "How Far It Really Went!", then you've come to the right place! Welcome to the ESPN Home Run Tracker, where you can find accurate, transparently verifiable distances for every home run hit in MLB games. Please also check out the ESPN MLB Scoreboard throughout the 2017 season! Contact us at grybar@hittrackeronline.com.
Season:
Ballpark detail for Busch Stadium
Ballpark # of Home Runs HR per game Avg.
True
Distance
Avg.
Speed
Off
Bat
Avg.
Std.
Dist.
Busch Stadium 79 1.98 400.6 104.4 398.3

Scatter Plot of Home Runs Busch Stadium
 Overlay Ballpark:
Without range rings   With range rings

2017 Season Home Runs for Busch Stadium
Click headers to sort
Date Video Path Hitter Hitter
Team
Pitcher Pitcher
Team
INN Ballpark Type/
Luck
 ^
True
Dist.
Speed
Off
Bat
Elev.
Angle
Horiz.
Angle
Apex Impact Due To: Std.
Dist.
#
Parks
Wind Temp. Alt.
04/09/17 Video View Votto, Joey CIN Oh, Seung Hwan STL 9 Busch Stadiu... PL 372 99.3 30.9 69.8 101 -9 0 1 380 27
04/08/17 Video View Suarez, Eugenio CIN Tuivailala, Sam STL 9 Busch Stadiu... PL 422 106.3 23.2 95.3 83 -2 0 0 423 30
04/08/17 Video View Diaz, Aledmys STL Arroyo, Bronson CIN 4 Busch Stadiu... PL 375 104.2 26.3 123.0 68 -1 1 1 374 30
04/08/17 Video View Diaz, Aledmys STL Arroyo, Bronson CIN 1 Busch Stadiu... PL 378 106.8 24.0 119.9 61 -1 0 0 378 30
04/02/17 Video View Contreras, Willson CHC Oh, Seung Hwan STL 9 Busch Stadiu... PL 392 103.9 26.8 110.3 81 -3 -1 0 395 30
04/19/17 Video View Fowler, Dexter STL Cole, Gerrit PIT 5 Busch Stadiu... PL 388 105.4 27.3 55.8 72 2 2 1 384 30
04/27/17 Video View Martin, Russell TOR Martinez, Carlos STL 2 Busch Stadiu... PL 417 102.2 27.8 85.2 94 4 -2 1 414 23
04/27/17 Video View Grichuk, Randal STL Osuna, Roberto TOR 9 Busch Stadiu... PL/L 412 99.5 32.7 94.7 110 16 -2 1 396 3
04/27/17 Video View Carpenter, Matt STL Howell, J.P. TOR 11 Busch Stadiu... PL 409 105.2 33.0 73.3 127 0 -2 2 408 30
04/27/17 Video View Morales, Kendrys TOR Wainwright, Adam STL 5 Busch Stadiu... PL 373 97.9 32.8 70.7 103 2 -1 2 372 23
04/28/17 Video View Fowler, Dexter STL Adleman, Tim CIN 3 Busch Stadiu... PL 389 102.1 31.3 66.7 100 0 -2 2 389 30
04/28/17 Video View Gyorko, Jedd STL Adleman, Tim CIN 6 Busch Stadiu... PL 414 102.7 27.7 82.9 97 0 -1 1 414 28
04/28/17 Video View Votto, Joey CIN Socolovich, Miguel STL 8 Busch Stadiu... PL 398 103.3 28.4 70.9 90 -1 -2 1 399 30
05/01/17 Video View Carpenter, Matt STL Davies, Zach MIL 5 Busch Stadiu... PL 416 101.3 29.7 92.7 103 7 -3 1 411 18
05/01/17 Video View Gyorko, Jedd STL Barnes, Jacob MIL 8 Busch Stadiu... PL 413 104.3 24.0 84.0 76 0 -1 0 414 20
05/01/17 Video View Gyorko, Jedd STL Feliz, Neftali MIL 10 Busch Stadiu... PL 416 104.3 25.2 82.6 82 0 -1 1 416 28
05/04/17 Video View Broxton, Keon MIL Wainwright, Adam STL 5 Busch Stadiu... PL 392 103.6 25.6 107.9 74 1 -2 0 392 30
05/04/17 Video View Aguilar, Jesus MIL Bowman, Matt STL 7 Busch Stadiu... PL 414 105.6 29.6 103.1 112 -6 -4 1 422 30
05/12/17 Video View Contreras, Willson CHC Leake, Mike STL 2 Busch Stadiu... PL 390 108.7 22.7 67.0 60 0 0 0 390 28
05/13/17 Video View Gyorko, Jedd STL Lester, Jon CHC 4 Busch Stadiu... PL 393 101.8 27.0 107.6 79 2 1 1 389 28
05/13/17 Video View Happ, Ian CHC Martinez, Carlos STL 7 Busch Stadiu... PL 409 106.2 26.1 71.1 80 0 1 1 407 30
05/14/17 Video View Molina, Yadier STL Arrieta, Jake CHC 2 Busch Stadiu... PL 393 106.2 27.2 122.7 74 2 0 1 390 30
05/14/17 Video View Carpenter, Matt STL Arrieta, Jake CHC 3 Busch Stadiu... PL/L 435 99.2 40.1 78.2 137 84 4 2 347 0
05/14/17 Video View Molina, Yadier STL Duensing, Brian CHC 8 Busch Stadiu... PL 412 101.9 26.8 96.5 86 2 1 1 408 21
05/17/17 Video View Bradley Jr., Jackie BOS Leake, Mike STL 7 Busch Stadiu... PL 445 108.7 23.4 89.6 86 0 1 0 444 30
05/19/17 Video View Fowler, Dexter STL Kontos, George SF 7 Busch Stadiu... PL/L 375 98.5 38.8 65.7 126 31 -3 3 346 12
05/21/17 Video View Carpenter, Matt STL Cain, Matt SF 5 Busch Stadiu... PL 402 107.4 24.0 70.9 68 0 0 0 401 30
05/21/17 Video View Crawford, Brandon SF Socolovich, Miguel STL 8 Busch Stadiu... PL 393 106.1 26.2 63.6 74 -1 0 1 393 30
05/29/17 Video View Utley, Chase LAD Leake, Mike STL 3 Busch Stadiu... PL 420 105.2 24.5 82.5 81 -1 2 1 418 28
05/30/17 Video View Molina, Yadier STL Hatcher, Chris LAD 8 Busch Stadiu... PL 378 98.6 31.3 112.6 92 4 1 1 373 25
06/01/17 Video View Wainwright, Adam STL McCarthy, Brandon LAD 2 Busch Stadiu... PL 413 105.6 26.7 107.7 82 3 1 1 409 30
06/09/17 Video View Diaz, Aledmys STL Hellickson, Jeremy PHI 5 Busch Stadiu... PL 412 102.4 27.4 97.2 94 -2 1 1 412 30
06/11/17 Video View Fowler, Dexter STL Nola, Aaron PHI 5 Busch Stadiu... PL 390 107.7 34.4 65.6 136 -25 6 2 405 30
06/13/17 Video View Martinez, Jose STL Suter, Brent MIL 5 Busch Stadiu... PL 416 102.8 29.1 81.6 104 -4 5 1 414 28
06/13/17 Video View Aguilar, Jesus MIL Gonzales, Marco STL 4 Busch Stadiu... PL 407 101.2 29.6 100.8 99 1 3 1 403 30
06/13/17 Video View Shaw, Travis MIL Gonzales, Marco STL 4 Busch Stadiu... PL 383 100.0 34.4 69.7 116 1 4 2 377 29
06/13/17 Video View Carpenter, Matt STL Hughes, Jared MIL 7 Busch Stadiu... PL 408 106.3 23.2 78.3 71 -1 1 0 407 29
06/14/17 Video View Thames, Eric MIL Leake, Mike STL 1 Busch Stadiu... PL 413 107.6 24.8 71.8 73 1 2 1 410 30
06/23/17 Video View DeJong, Paul STL Hudson, Daniel PIT 7 Busch Stadiu... PL 404 102.8 27.1 76.2 85 0 1 1 403 29
06/26/17 Video View Gyorko, Jedd STL Finnegan, Brandon CIN 1 Busch Stadiu... PL 411 104.0 28.8 104.9 98 -2 0 1 411 30
04/06/17 Video View Schwarber, Kyle CHC Cecil, Brett STL 7 Busch Stadiu... ND 422 110.1 27.9 66.4 97 -4 -1 1 426 30
04/28/17 Video View Schebler, Scott CIN Lynn, Lance STL 2 Busch Stadiu... ND 405 106.1 30.9 64.3 103 0 -2 1 406 30
05/01/17 Video View Villar, Jonathan MIL Wacha, Michael STL 3 Busch Stadiu... ND 451 111.0 25.6 78.4 92 4 -2 1 448 30
05/01/17 Video View Shaw, Travis MIL Oh, Seung Hwan STL 10 Busch Stadiu... ND 443 112.2 24.1 76.7 82 0 -2 1 443 30
05/17/17 Video View Fowler, Dexter STL Porcello, Rick BOS 1 Busch Stadiu... ND 418 109.7 24.2 72.2 76 -3 -3 0 420 30
05/29/17 Video View Bellinger, Cody LAD Leake, Mike STL 4 Busch Stadiu... ND 432 111.4 27.1 66.0 90 -2 3 1 430 30
05/29/17 Video View Forsythe, Logan LAD Siegrist, Kevin STL 8 Busch Stadiu... ND 416 106.8 26.7 108.0 86 -2 2 1 415 30
05/31/17 Video View Fowler, Dexter STL Stripling, Ross LAD 8 Busch Stadiu... ND 436 108.0 27.8 77.8 103 -2 1 1 436 30
06/13/17 Video View Martinez, Jose STL Feliz, Neftali MIL 8 Busch Stadiu... ND 440 111.7 22.5 99.7 76 -2 1 0 440 30
06/15/17 Video View Broxton, Keon MIL Wacha, Michael STL 2 Busch Stadiu... ND 442 106.0 29.4 97.7 109 6 3 2 432 30
06/25/17 Video View Grichuk, Randal STL Kuhl, Chad PIT 6 Busch Stadiu... ND 426 111.7 30.2 119.0 108 -6 1 2 429 30
04/09/17 Video View Duvall, Adam CIN Martinez, Carlos STL 2 Busch Stadiu... JE/L 385 102.4 23.8 103.0 68 -1 0 1 385 22
04/08/17 Video View Schebler, Scott CIN Broxton, Jonathan STL 8 Busch Stadiu... JE 380 99.0 31.1 75.6 106 -8 0 1 386 27
04/07/17 Video View Schebler, Scott CIN Siegrist, Kevin STL 9 Busch Stadiu... JE 383 100.3 27.1 107.5 77 2 -2 0 381 25
04/02/17 Video View Grichuk, Randal STL Strop, Pedro CHC 8 Busch Stadiu... JE 386 103.1 24.8 71.9 67 1 -1 0 385 25
04/17/17 Video View Wong, Kolten STL Nova, Ivan PIT 3 Busch Stadiu... JE 396 105.6 23.6 74.0 66 1 0 1 395 27
04/19/17 Video View Fowler, Dexter STL Cole, Gerrit PIT 3 Busch Stadiu... JE 405 110.5 21.0 75.5 59 1 0 0 403 28
04/19/17 Video View Bell, Josh PIT Wacha, Michael STL 4 Busch Stadiu... JE 408 101.1 30.6 85.8 113 -4 3 1 409 20
04/25/17 Video View Martinez, Jose STL Biagini, Joe TOR 7 Busch Stadiu... JE 380 99.3 28.2 74.4 87 -5 0 1 383 28
04/27/17 Video View Fowler, Dexter STL Lawrence, Casey TOR 2 Busch Stadiu... JE 401 101.7 25.7 81.6 82 0 -1 1 401 17
05/01/17 Video View Diaz, Aledmys STL Davies, Zach MIL 5 Busch Stadiu... JE 371 105.5 23.3 116.9 56 2 -1 0 370 19
05/12/17 Video View Contreras, Willson CHC Leake, Mike STL 4 Busch Stadiu... JE 420 114.7 17.1 93.8 51 0 0 0 419 19
05/12/17 Video View La Stella, Tommy CHC Cecil, Brett STL 7 Busch Stadiu... JE 349 99.2 38.7 63.7 133 0 -1 2 348 26
05/12/17 Video View Grichuk, Randal STL Edwards Jr., Carl CHC 7 Busch Stadiu... JE 409 100.8 28.7 93.6 100 0 -1 1 408 15
05/16/17 Video View Betts, Mookie BOS Lynn, Lance STL 1 Busch Stadiu... JE 412 103.2 23.6 92.8 78 1 1 0 409 19
05/16/17 Video View Bradley Jr., Jackie BOS Lynn, Lance STL 2 Busch Stadiu... JE 399 99.6 30.0 97.5 103 -2 2 1 398 20
05/21/17 Video View Nunez, Eduardo SF Socolovich, Miguel STL 8 Busch Stadiu... JE 384 105.2 23.8 110.6 64 0 0 1 384 27
06/11/17 Video View Nava, Daniel PHI Bowman, Matt STL 7 Busch Stadiu... JE 365 103.8 24.7 59.2 62 -2 1 0 366 26
06/13/17 Video View Broxton, Keon MIL Gonzales, Marco STL 3 Busch Stadiu... JE 402 104.7 22.2 97.6 66 0 0 0 401 11
06/14/17 Video View Diaz, Aledmys STL Barnes, Jacob MIL 8 Busch Stadiu... JE 368 105.9 24.4 126.2 59 -1 0 1 368 30
06/15/17 Video View Fowler, Dexter STL Davies, Zach MIL 3 Busch Stadiu... JE/L 403 99.4 31.1 78.7 100 7 3 1 392 24
06/15/17 Video View Thames, Eric MIL Oh, Seung Hwan STL 9 Busch Stadiu... JE 363 105.6 23.0 58.4 54 0 1 1 362 21
06/23/17 Video View Bell, Josh PIT Wainwright, Adam STL 2 Busch Stadiu... JE 360 104.9 23.7 54.8 55 0 1 0 359 27
06/23/17 Video View Martinez, Jose STL Taillon, Jameson PIT 2 Busch Stadiu... JE 361 101.7 26.4 124.8 64 0 1 0 360 26
06/23/17 Video View Jaso, John PIT Oh, Seung Hwan STL 9 Busch Stadiu... JE 403 99.5 31.1 84.1 108 2 1 1 398 15
06/24/17 Video View Carpenter, Matt STL Cole, Gerrit PIT 1 Busch Stadiu... JE 382 108.5 21.5 69.8 54 0 0 0 382 22
06/24/17 Video View Mercer, Jordy PIT Lynn, Lance STL 4 Busch Stadiu... JE 373 112.2 21.0 126.0 49 0 1 1 373 30
06/24/17 Video View Harrison, Josh PIT Lynn, Lance STL 5 Busch Stadiu... JE 366 100.6 26.1 114.7 66 0 0 1 365 16
06/26/17 Video View Grichuk, Randal STL Brice, Austin CIN 4 Busch Stadiu... JE 408 100.9 29.0 86.4 103 -2 1 1 409 15


About HitTracker | Contact Us
© 2006-2017 HitTrackerOnline